Vega Emtoli — LAQY7 — position and weather

sailwx.info

Track history (hours):
 
Tides and Currents Weather Stations Pressure Air Temp Water Temp Dewpoint Dewpoint Depression Visibility Wind Speed Wind Dir Waves Ship Positions

Vega Emtoli

Last reported at 2016-Jul-24 04:10 UTC. Time now 2016-Jul-24 06:41 UTC.
Position S 23°02' W 040°49'.

Length 59 m; draft 4.5 m.

Type: Pollution control. MMSI: 258026000.

Date/timePositionNaut miles runAvg speedWind from/ knotsBaromVisibWave heightAir tempDewpointWater temp
2016-Jul-24 04:10S 23°02' W 040°49'2 0.1
2016-Jul-23 14:10S 23°04' W 040°48'1 0.9
2016-Jul-23 13:33S 23°04' W 040°48'1 1.0
2016-Jul-23 12:33S 23°04' W 040°47'1 0.1
2016-Jul-23 01:27S 23°03' W 040°48'2 1.8
2016-Jul-23 00:33S 23°02' W 040°48'1 0.3
2016-Jul-22 19:32S 23°03' W 040°48'1 1.0
2016-Jul-22 18:31S 23°04' W 040°47'1 1.1
2016-Jul-22 17:33S 23°03' W 040°47'1 1.2
2016-Jul-22 16:33S 23°02' W 040°46'2 0.6
2016-Jul-22 12:31S 23°04' W 040°47'2 2.3
2016-Jul-22 11:32S 23°02' W 040°46'2 0.6
2016-Jul-22 08:21S 23°03' W 040°46'0 0.0
2016-Jul-22 03:31S 23°04' W 040°46'2 1.9
2016-Jul-22 02:33S 23°02' W 040°47'1 0.8
2016-Jul-22 01:28S 23°01' W 040°46'1 1.0
2016-Jul-22 00:27S 23°02' W 040°46'1 0.5
2016-Jul-21 22:33S 23°03' W 040°45'1 1.3
2016-Jul-21 21:33S 23°02' W 040°45'1 0.5
2016-Jul-21 20:26S 23°02' W 040°45'1 1.0
2016-Jul-21 19:13S 23°03' W 040°45'1 1.8
2016-Jul-21 18:33S 23°02' W 040°45'2 1.8
2016-Jul-21 17:33S 23°00' W 040°46'28 0.7
2016-Jul-20 04:30S 23°02' W 041°16'1010.3
2016-Jul-20 03:33S 23°11' W 041°11'1010.4
2016-Jul-20 02:34S 23°20' W 041°06'6 6.4
2016-Jul-20 01:33S 23°26' W 041°03'1 0.4
2016-Jul-19 23:11S 23°25' W 041°03'2 2.1
2016-Jul-19 22:21S 23°27' W 041°03'2 2.3
2016-Jul-19 21:33S 23°29' W 041°03'2 1.5
2016-Jul-19 20:29S 23°28' W 041°02'2 1.7
2016-Jul-19 19:33S 23°26' W 041°01'0 0.3
2016-Jul-19 18:33S 23°26' W 041°01'2 1.6
2016-Jul-19 17:33S 23°28' W 041°01'3 0.1
2016-Jul-18 15:18S 23°31' W 040°60'3 1.6
2016-Jul-18 13:33S 23°28' W 040°58'3 0.3
2016-Jul-18 03:13S 23°31' W 040°60'1 0.3
2016-Jul-17 23:29S 23°32' W 041°00'3 1.2
2016-Jul-17 21:09S 23°30' W 040°58'3 0.6
2016-Jul-17 16:27S 23°32' W 041°00'1 1.3
2016-Jul-17 15:21S 23°30' W 040°60'1 0.4
2016-Jul-17 12:16S 23°31' W 041°01'1 1.1
2016-Jul-17 11:28S 23°30' W 041°01'0 0.3
2016-Jul-17 10:26S 23°30' W 041°01'1 1.0
2016-Jul-17 09:29S 23°31' W 041°01'1 1.5
2016-Jul-17 08:33S 23°30' W 041°00'1 0.7
2016-Jul-17 07:24S 23°29' W 040°60'2 2.2
2016-Jul-17 06:33S 23°31' W 041°01'1 0.4
2016-Jul-17 03:27S 23°30' W 040°60'2 1.5
2016-Jul-17 02:17S 23°32' W 041°00'1 1.0
2016-Jul-17 01:32S 23°32' W 041°00'3 1.5
2016-Jul-16 23:33S 23°29' W 041°00'1 0.9
2016-Jul-16 22:32S 23°30' W 041°00'1 0.8
2016-Jul-16 21:33S 23°31' W 040°60'1 1.4
2016-Jul-16 20:33S 23°30' W 040°59'0 0.2
2016-Jul-16 19:12S 23°30' W 040°59'0 0.4
2016-Jul-16 18:33S 23°30' W 040°59'0 0.4
2016-Jul-16 17:34S 23°30' W 040°59'0 0.4
2016-Jul-16 16:33S 23°30' W 040°60'0 0.1
2016-Jul-16 15:34S 23°30' W 040°60'0 0.5
2016-Jul-16 14:34S 23°30' W 040°60'0 0.4
2016-Jul-16 13:34S 23°30' W 041°00'0 0.4
2016-Jul-16 12:33S 23°30' W 041°00'0 0.4
2016-Jul-16 11:33S 23°31' W 041°00'0 0.3
2016-Jul-16 10:33S 23°30' W 041°00'0 0.4
2016-Jul-16 09:33S 23°30' W 041°00'0 0.3
2016-Jul-16 08:33S 23°30' W 040°60'1 0.6
2016-Jul-16 07:34S 23°30' W 041°00'0 0.5
2016-Jul-16 06:33S 23°31' W 041°00'2 0.8
2016-Jul-16 04:33S 23°30' W 040°59'1 0.5
2016-Jul-16 03:33S 23°30' W 040°59'1 0.8
2016-Jul-16 02:34S 23°30' W 040°60'0 0.1
2016-Jul-16 01:33S 23°30' W 040°60'0 0.2
2016-Jul-16 00:33S 23°30' W 040°59'0 0.3
2016-Jul-15 23:33S 23°30' W 040°60'0 0.3
2016-Jul-15 22:33S 23°30' W 040°60'0 0.2
2016-Jul-15 21:33S 23°30' W 041°00'0 0.3
2016-Jul-15 20:33S 23°30' W 041°00'0 0.3
2016-Jul-15 19:33S 23°30' W 041°01'  
Track history (hours):
 
Tides and Currents Weather Stations Pressure Air Temp Water Temp Dewpoint Dewpoint Depression Visibility Wind Speed Wind Dir Waves Ship Positions

Vega Emtoli

Last reported at 2016-Jul-24 04:10 UTC. Time now 2016-Jul-24 06:41 UTC.
Position S 23°02' W 040°49'.

Length 59 m; draft 4.5 m.

Type: Pollution control. MMSI: 258026000.

Date/timePositionNaut miles runAvg speedWind from/ knotsBaromVisibWave heightAir tempDewpointWater temp
2016-Jul-24 04:10S 23°02' W 040°49'2 0.1
2016-Jul-23 14:10S 23°04' W 040°48'1 0.9
2016-Jul-23 13:33S 23°04' W 040°48'1 1.0
2016-Jul-23 12:33S 23°04' W 040°47'1 0.1
2016-Jul-23 01:27S 23°03' W 040°48'2 1.8
2016-Jul-23 00:33S 23°02' W 040°48'1 0.3
2016-Jul-22 19:32S 23°03' W 040°48'1 1.0
2016-Jul-22 18:31S 23°04' W 040°47'1 1.1
2016-Jul-22 17:33S 23°03' W 040°47'1 1.2
2016-Jul-22 16:33S 23°02' W 040°46'2 0.6
2016-Jul-22 12:31S 23°04' W 040°47'2 2.3
2016-Jul-22 11:32S 23°02' W 040°46'2 0.6
2016-Jul-22 08:21S 23°03' W 040°46'0 0.0
2016-Jul-22 03:31S 23°04' W 040°46'2 1.9
2016-Jul-22 02:33S 23°02' W 040°47'1 0.8
2016-Jul-22 01:28S 23°01' W 040°46'1 1.0
2016-Jul-22 00:27S 23°02' W 040°46'1 0.5
2016-Jul-21 22:33S 23°03' W 040°45'1 1.3
2016-Jul-21 21:33S 23°02' W 040°45'1 0.5
2016-Jul-21 20:26S 23°02' W 040°45'1 1.0
2016-Jul-21 19:13S 23°03' W 040°45'1 1.8
2016-Jul-21 18:33S 23°02' W 040°45'2 1.8
2016-Jul-21 17:33S 23°00' W 040°46'28 0.7
2016-Jul-20 04:30S 23°02' W 041°16'1010.3
2016-Jul-20 03:33S 23°11' W 041°11'1010.4
2016-Jul-20 02:34S 23°20' W 041°06'6 6.4
2016-Jul-20 01:33S 23°26' W 041°03'1 0.4
2016-Jul-19 23:11S 23°25' W 041°03'2 2.1
2016-Jul-19 22:21S 23°27' W 041°03'2 2.3
2016-Jul-19 21:33S 23°29' W 041°03'2 1.5
2016-Jul-19 20:29S 23°28' W 041°02'2 1.7
2016-Jul-19 19:33S 23°26' W 041°01'0 0.3
2016-Jul-19 18:33S 23°26' W 041°01'2 1.6
2016-Jul-19 17:33S 23°28' W 041°01'3 0.1
2016-Jul-18 15:18S 23°31' W 040°60'3 1.6
2016-Jul-18 13:33S 23°28' W 040°58'3 0.3
2016-Jul-18 03:13S 23°31' W 040°60'1 0.3
2016-Jul-17 23:29S 23°32' W 041°00'3 1.2
2016-Jul-17 21:09S 23°30' W 040°58'3 0.6
2016-Jul-17 16:27S 23°32' W 041°00'1 1.3
2016-Jul-17 15:21S 23°30' W 040°60'1 0.4
2016-Jul-17 12:16S 23°31' W 041°01'1 1.1
2016-Jul-17 11:28S 23°30' W 041°01'0 0.3
2016-Jul-17 10:26S 23°30' W 041°01'1 1.0
2016-Jul-17 09:29S 23°31' W 041°01'1 1.5
2016-Jul-17 08:33S 23°30' W 041°00'1 0.7
2016-Jul-17 07:24S 23°29' W 040°60'2 2.2
2016-Jul-17 06:33S 23°31' W 041°01'1 0.4
2016-Jul-17 03:27S 23°30' W 040°60'2 1.5
2016-Jul-17 02:17S 23°32' W 041°00'1 1.0
2016-Jul-17 01:32S 23°32' W 041°00'3 1.5
2016-Jul-16 23:33S 23°29' W 041°00'1 0.9
2016-Jul-16 22:32S 23°30' W 041°00'1 0.8
2016-Jul-16 21:33S 23°31' W 040°60'1 1.4
2016-Jul-16 20:33S 23°30' W 040°59'0 0.2
2016-Jul-16 19:12S 23°30' W 040°59'0 0.4
2016-Jul-16 18:33S 23°30' W 040°59'0 0.4
2016-Jul-16 17:34S 23°30' W 040°59'0 0.4
2016-Jul-16 16:33S 23°30' W 040°60'0 0.1
2016-Jul-16 15:34S 23°30' W 040°60'0 0.5
2016-Jul-16 14:34S 23°30' W 040°60'0 0.4
2016-Jul-16 13:34S 23°30' W 041°00'0 0.4
2016-Jul-16 12:33S 23°30' W 041°00'0 0.4
2016-Jul-16 11:33S 23°31' W 041°00'0 0.3
2016-Jul-16 10:33S 23°30' W 041°00'0 0.4
2016-Jul-16 09:33S 23°30' W 041°00'0 0.3
2016-Jul-16 08:33S 23°30' W 040°60'1 0.6
2016-Jul-16 07:34S 23°30' W 041°00'0 0.5
2016-Jul-16 06:33S 23°31' W 041°00'2 0.8
2016-Jul-16 04:33S 23°30' W 040°59'1 0.5
2016-Jul-16 03:33S 23°30' W 040°59'1 0.8
2016-Jul-16 02:34S 23°30' W 040°60'0 0.1
2016-Jul-16 01:33S 23°30' W 040°60'0 0.2
2016-Jul-16 00:33S 23°30' W 040°59'0 0.3
2016-Jul-15 23:33S 23°30' W 040°60'0 0.3
2016-Jul-15 22:33S 23°30' W 040°60'0 0.2
2016-Jul-15 21:33S 23°30' W 041°00'0 0.3
2016-Jul-15 20:33S 23°30' W 041°00'0 0.3
2016-Jul-15 19:33S 23°30' W 041°01'  

Dump ship's entire track history